sensor_id;sensor_type;location;lat;lon;timestamp;temperature;humidity
578;DHT22;275;48.492;9.214;2024-02-14T00:00:03;8.30;25.90
578;DHT22;275;48.492;9.214;2024-02-14T00:02:30;8.20;26.00
578;DHT22;275;48.492;9.214;2024-02-14T00:04:59;8.20;26.40
578;DHT22;275;48.492;9.214;2024-02-14T00:07:26;8.10;26.70
578;DHT22;275;48.492;9.214;2024-02-14T00:09:53;8.10;27.00
578;DHT22;275;48.492;9.214;2024-02-14T00:12:20;7.90;27.30
578;DHT22;275;48.492;9.214;2024-02-14T00:14:49;8.10;27.00
578;DHT22;275;48.492;9.214;2024-02-14T00:17:16;8.20;26.70
578;DHT22;275;48.492;9.214;2024-02-14T00:19:43;8.00;26.80
578;DHT22;275;48.492;9.214;2024-02-14T00:22:11;8.20;26.70
578;DHT22;275;48.492;9.214;2024-02-14T00:24:38;8.20;26.40
578;DHT22;275;48.492;9.214;2024-02-14T00:27:05;8.30;26.20
578;DHT22;275;48.492;9.214;2024-02-14T00:29:32;8.20;26.30
578;DHT22;275;48.492;9.214;2024-02-14T00:32:00;8.20;26.20
578;DHT22;275;48.492;9.214;2024-02-14T00:34:27;8.30;26.20
578;DHT22;275;48.492;9.214;2024-02-14T00:36:53;8.30;26.10
578;DHT22;275;48.492;9.214;2024-02-14T00:39:22;8.30;26.10
578;DHT22;275;48.492;9.214;2024-02-14T00:41:48;7.80;26.70
578;DHT22;275;48.492;9.214;2024-02-14T00:44:18;7.40;27.50
578;DHT22;275;48.492;9.214;2024-02-14T00:46:45;7.30;28.00
578;DHT22;275;48.492;9.214;2024-02-14T00:49:12;7.50;27.70
578;DHT22;275;48.492;9.214;2024-02-14T00:51:39;7.40;27.90
578;DHT22;275;48.492;9.214;2024-02-14T00:54:06;7.50;28.00
578;DHT22;275;48.492;9.214;2024-02-14T00:56:35;7.60;27.80
578;DHT22;275;48.492;9.214;2024-02-14T00:59:01;7.60;28.30
578;DHT22;275;48.492;9.214;2024-02-14T01:01:29;7.70;28.00
578;DHT22;275;48.492;9.214;2024-02-14T01:03:55;7.90;27.40
578;DHT22;275;48.492;9.214;2024-02-14T01:06:22;8.10;27.10
578;DHT22;275;48.492;9.214;2024-02-14T01:08:50;8.30;26.80
578;DHT22;275;48.492;9.214;2024-02-14T01:11:17;8.10;27.50
578;DHT22;275;48.492;9.214;2024-02-14T01:13:45;8.40;27.40
578;DHT22;275;48.492;9.214;2024-02-14T01:16:12;8.50;27.10
578;DHT22;275;48.492;9.214;2024-02-14T01:18:39;8.50;27.50
578;DHT22;275;48.492;9.214;2024-02-14T01:21:05;8.50;27.30
578;DHT22;275;48.492;9.214;2024-02-14T01:23:32;8.40;27.90
578;DHT22;275;48.492;9.214;2024-02-14T01:25:59;8.00;28.80
578;DHT22;275;48.492;9.214;2024-02-14T01:28:27;8.30;28.70
578;DHT22;275;48.492;9.214;2024-02-14T01:30:55;8.50;28.40
578;DHT22;275;48.492;9.214;2024-02-14T01:33:22;8.90;27.90
578;DHT22;275;48.492;9.214;2024-02-14T01:35:49;9.20;27.70
578;DHT22;275;48.492;9.214;2024-02-14T01:38:16;9.40;27.60
578;DHT22;275;48.492;9.214;2024-02-14T01:40:43;9.40;27.50
578;DHT22;275;48.492;9.214;2024-02-14T01:43:11;9.40;27.40
578;DHT22;275;48.492;9.214;2024-02-14T01:45:40;9.30;27.70
578;DHT22;275;48.492;9.214;2024-02-14T01:48:09;9.00;28.50
578;DHT22;275;48.492;9.214;2024-02-14T01:50:36;9.10;28.20
578;DHT22;275;48.492;9.214;2024-02-14T01:53:05;8.90;28.70
578;DHT22;275;48.492;9.214;2024-02-14T01:55:32;9.00;28.10
578;DHT22;275;48.492;9.214;2024-02-14T01:58:00;9.20;27.60
578;DHT22;275;48.492;9.214;2024-02-14T02:00:29;9.10;27.70
578;DHT22;275;48.492;9.214;2024-02-14T02:02:57;8.90;27.50
578;DHT22;275;48.492;9.214;2024-02-14T02:05:25;8.70;27.80
578;DHT22;275;48.492;9.214;2024-02-14T02:07:52;8.80;27.80
578;DHT22;275;48.492;9.214;2024-02-14T02:10:19;8.20;28.90
578;DHT22;275;48.492;9.214;2024-02-14T02:12:47;7.80;30.30
578;DHT22;275;48.492;9.214;2024-02-14T02:15:16;8.00;30.20
578;DHT22;275;48.492;9.214;2024-02-14T02:17:43;8.20;30.00
578;DHT22;275;48.492;9.214;2024-02-14T02:20:11;8.40;29.90
578;DHT22;275;48.492;9.214;2024-02-14T02:22:45;8.60;29.30
578;DHT22;275;48.492;9.214;2024-02-14T02:25:12;8.80;29.00
578;DHT22;275;48.492;9.214;2024-02-14T02:27:39;8.40;29.50
578;DHT22;275;48.492;9.214;2024-02-14T02:30:07;8.10;29.70
578;DHT22;275;48.492;9.214;2024-02-14T02:32:35;7.90;30.20
578;DHT22;275;48.492;9.214;2024-02-14T02:35:03;7.40;32.20
578;DHT22;275;48.492;9.214;2024-02-14T02:37:30;7.50;32.50
578;DHT22;275;48.492;9.214;2024-02-14T02:39:59;7.50;32.90
578;DHT22;275;48.492;9.214;2024-02-14T02:42:26;7.80;32.50
578;DHT22;275;48.492;9.214;2024-02-14T02:44:53;8.40;31.60
578;DHT22;275;48.492;9.214;2024-02-14T02:47:19;8.80;30.10
578;DHT22;275;48.492;9.214;2024-02-14T02:49:46;8.80;29.80
578;DHT22;275;48.492;9.214;2024-02-14T02:52:13;8.80;29.70
578;DHT22;275;48.492;9.214;2024-02-14T02:54:40;8.50;29.80
578;DHT22;275;48.492;9.214;2024-02-14T02:57:11;8.30;30.20
578;DHT22;275;48.492;9.214;2024-02-14T02:59:37;8.40;30.10
578;DHT22;275;48.492;9.214;2024-02-14T03:02:08;8.40;30.10
578;DHT22;275;48.492;9.214;2024-02-14T03:04:37;8.40;30.70
578;DHT22;275;48.492;9.214;2024-02-14T03:07:04;8.10;31.60
578;DHT22;275;48.492;9.214;2024-02-14T03:09:34;8.10;32.70
578;DHT22;275;48.492;9.214;2024-02-14T03:12:01;8.10;31.80
578;DHT22;275;48.492;9.214;2024-02-14T03:14:30;8.20;31.40
578;DHT22;275;48.492;9.214;2024-02-14T03:17:01;8.40;31.30
578;DHT22;275;48.492;9.214;2024-02-14T03:19:28;8.50;31.40
578;DHT22;275;48.492;9.214;2024-02-14T03:21:55;8.60;31.40
578;DHT22;275;48.492;9.214;2024-02-14T03:24:24;8.70;31.10
578;DHT22;275;48.492;9.214;2024-02-14T03:26:51;8.90;30.50
578;DHT22;275;48.492;9.214;2024-02-14T03:29:19;9.00;30.30
578;DHT22;275;48.492;9.214;2024-02-14T03:31:47;9.10;30.10
578;DHT22;275;48.492;9.214;2024-02-14T03:34:14;9.10;30.30
578;DHT22;275;48.492;9.214;2024-02-14T03:36:41;9.10;30.10
578;DHT22;275;48.492;9.214;2024-02-14T03:39:08;9.10;29.90
578;DHT22;275;48.492;9.214;2024-02-14T03:41:36;9.20;29.80
578;DHT22;275;48.492;9.214;2024-02-14T03:44:04;9.20;28.10
578;DHT22;275;48.492;9.214;2024-02-14T03:46:35;9.30;29.30
578;DHT22;275;48.492;9.214;2024-02-14T03:49:03;9.30;29.00
578;DHT22;275;48.492;9.214;2024-02-14T03:51:30;9.50;28.60
578;DHT22;275;48.492;9.214;2024-02-14T03:53:57;9.30;28.90
578;DHT22;275;48.492;9.214;2024-02-14T03:56:24;9.10;29.50
578;DHT22;275;48.492;9.214;2024-02-14T03:58:51;9.00;29.70
578;DHT22;275;48.492;9.214;2024-02-14T04:01:18;8.70;30.70
578;DHT22;275;48.492;9.214;2024-02-14T04:03:46;8.50;31.30
578;DHT22;275;48.492;9.214;2024-02-14T04:06:15;8.40;31.30
578;DHT22;275;48.492;9.214;2024-02-14T04:08:43;8.20;31.90
578;DHT22;275;48.492;9.214;2024-02-14T04:11:10;8.30;31.20
578;DHT22;275;48.492;9.214;2024-02-14T04:13:38;8.60;30.70
578;DHT22;275;48.492;9.214;2024-02-14T04:16:06;8.50;31.00
578;DHT22;275;48.492;9.214;2024-02-14T04:18:32;8.30;31.10
578;DHT22;275;48.492;9.214;2024-02-14T04:20:59;8.30;31.30
578;DHT22;275;48.492;9.214;2024-02-14T04:23:27;8.40;31.20
578;DHT22;275;48.492;9.214;2024-02-14T04:25:54;8.20;31.60
578;DHT22;275;48.492;9.214;2024-02-14T04:28:21;8.30;31.60
578;DHT22;275;48.492;9.214;2024-02-14T04:30:48;8.60;31.00
578;DHT22;275;48.492;9.214;2024-02-14T04:33:14;8.40;31.40
578;DHT22;275;48.492;9.214;2024-02-14T04:35:43;8.40;31.70
578;DHT22;275;48.492;9.214;2024-02-14T04:38:10;8.20;31.70
578;DHT22;275;48.492;9.214;2024-02-14T04:40:38;8.20;32.00
578;DHT22;275;48.492;9.214;2024-02-14T04:43:05;8.20;32.00
578;DHT22;275;48.492;9.214;2024-02-14T04:45:32;8.20;32.70
578;DHT22;275;48.492;9.214;2024-02-14T04:48:00;8.30;31.80
578;DHT22;275;48.492;9.214;2024-02-14T04:50:27;8.30;31.60
578;DHT22;275;48.492;9.214;2024-02-14T04:52:55;8.40;31.80
578;DHT22;275;48.492;9.214;2024-02-14T04:55:22;8.60;30.60
578;DHT22;275;48.492;9.214;2024-02-14T04:57:50;8.50;30.50
578;DHT22;275;48.492;9.214;2024-02-14T05:00:18;8.40;30.60
578;DHT22;275;48.492;9.214;2024-02-14T05:02:44;8.40;30.20
578;DHT22;275;48.492;9.214;2024-02-14T05:05:11;8.00;31.40
578;DHT22;275;48.492;9.214;2024-02-14T05:07:38;7.90;31.70
578;DHT22;275;48.492;9.214;2024-02-14T05:10:06;8.00;31.50
578;DHT22;275;48.492;9.214;2024-02-14T05:12:33;8.20;30.90
578;DHT22;275;48.492;9.214;2024-02-14T05:15:01;8.10;31.10
578;DHT22;275;48.492;9.214;2024-02-14T05:17:28;7.90;31.90
578;DHT22;275;48.492;9.214;2024-02-14T05:19:55;8.20;31.50
578;DHT22;275;48.492;9.214;2024-02-14T05:22:23;8.20;31.50
578;DHT22;275;48.492;9.214;2024-02-14T05:24:50;8.10;31.40
578;DHT22;275;48.492;9.214;2024-02-14T05:27:17;8.40;31.10
578;DHT22;275;48.492;9.214;2024-02-14T05:29:44;8.30;31.40
578;DHT22;275;48.492;9.214;2024-02-14T05:32:12;7.80;33.10
578;DHT22;275;48.492;9.214;2024-02-14T05:34:39;7.90;33.30
578;DHT22;275;48.492;9.214;2024-02-14T05:37:06;8.20;32.50
578;DHT22;275;48.492;9.214;2024-02-14T05:39:33;8.40;31.90
578;DHT22;275;48.492;9.214;2024-02-14T05:42:00;8.40;31.70
578;DHT22;275;48.492;9.214;2024-02-14T05:44:28;8.10;32.00
578;DHT22;275;48.492;9.214;2024-02-14T05:46:55;7.90;32.90
578;DHT22;275;48.492;9.214;2024-02-14T05:49:23;8.00;32.60
578;DHT22;275;48.492;9.214;2024-02-14T05:51:51;8.00;32.90
578;DHT22;275;48.492;9.214;2024-02-14T05:54:18;8.40;31.50
578;DHT22;275;48.492;9.214;2024-02-14T05:56:45;8.50;31.00
578;DHT22;275;48.492;9.214;2024-02-14T05:59:12;8.50;30.40
578;DHT22;275;48.492;9.214;2024-02-14T06:01:39;8.70;29.70
578;DHT22;275;48.492;9.214;2024-02-14T06:04:06;8.80;29.20
578;DHT22;275;48.492;9.214;2024-02-14T06:06:34;9.20;28.10
578;DHT22;275;48.492;9.214;2024-02-14T06:09:01;9.20;27.70
578;DHT22;275;48.492;9.214;2024-02-14T06:11:35;9.40;27.50
578;DHT22;275;48.492;9.214;2024-02-14T06:14:04;9.40;26.80
578;DHT22;275;48.492;9.214;2024-02-14T06:16:31;9.70;26.40
578;DHT22;275;48.492;9.214;2024-02-14T06:18:58;9.70;26.30
578;DHT22;275;48.492;9.214;2024-02-14T06:21:25;9.80;26.30
578;DHT22;275;48.492;9.214;2024-02-14T06:23:53;9.60;26.40
578;DHT22;275;48.492;9.214;2024-02-14T06:26:20;9.80;27.20
578;DHT22;275;48.492;9.214;2024-02-14T06:28:47;9.70;27.50
578;DHT22;275;48.492;9.214;2024-02-14T06:31:19;9.90;27.10
578;DHT22;275;48.492;9.214;2024-02-14T06:33:46;10.10;26.40
578;DHT22;275;48.492;9.214;2024-02-14T06:36:13;10.10;26.30
578;DHT22;275;48.492;9.214;2024-02-14T06:38:40;10.00;26.10
578;DHT22;275;48.492;9.214;2024-02-14T06:41:08;10.20;26.20
578;DHT22;275;48.492;9.214;2024-02-14T06:46:02;10.20;25.90
578;DHT22;275;48.492;9.214;2024-02-14T06:48:30;9.50;28.40
578;DHT22;275;48.492;9.214;2024-02-14T06:50:57;9.60;28.80
578;DHT22;275;48.492;9.214;2024-02-14T06:53:23;9.60;28.10
578;DHT22;275;48.492;9.214;2024-02-14T06:55:50;9.40;27.60
578;DHT22;275;48.492;9.214;2024-02-14T06:58:18;9.50;27.70
578;DHT22;275;48.492;9.214;2024-02-14T07:00:45;9.80;27.20
578;DHT22;275;48.492;9.214;2024-02-14T07:03:12;10.00;26.20
578;DHT22;275;48.492;9.214;2024-02-14T07:05:39;10.40;26.70
578;DHT22;275;48.492;9.214;2024-02-14T07:08:07;10.40;26.80
578;DHT22;275;48.492;9.214;2024-02-14T07:10:34;10.20;27.20
578;DHT22;275;48.492;9.214;2024-02-14T07:13:00;10.10;27.50
578;DHT22;275;48.492;9.214;2024-02-14T07:15:29;10.00;27.80
578;DHT22;275;48.492;9.214;2024-02-14T07:17:55;10.10;27.80
578;DHT22;275;48.492;9.214;2024-02-14T07:20:24;10.20;27.70
578;DHT22;275;48.492;9.214;2024-02-14T07:22:52;10.40;27.40
578;DHT22;275;48.492;9.214;2024-02-14T07:25:20;10.40;27.40
578;DHT22;275;48.492;9.214;2024-02-14T07:27:48;10.30;27.70
578;DHT22;275;48.492;9.214;2024-02-14T07:30:15;10.40;27.80
578;DHT22;275;48.492;9.214;2024-02-14T07:32:44;10.30;27.70
578;DHT22;275;48.492;9.214;2024-02-14T07:35:11;10.10;28.20
578;DHT22;275;48.492;9.214;2024-02-14T07:37:38;9.70;29.30
578;DHT22;275;48.492;9.214;2024-02-14T07:40:06;10.00;28.10
578;DHT22;275;48.492;9.214;2024-02-14T07:42:33;10.20;26.80
578;DHT22;275;48.492;9.214;2024-02-14T07:45:00;10.10;27.00
578;DHT22;275;48.492;9.214;2024-02-14T07:47:29;9.50;29.10
578;DHT22;275;48.492;9.214;2024-02-14T07:49:57;9.40;29.80
578;DHT22;275;48.492;9.214;2024-02-14T07:52:24;9.10;30.30
578;DHT22;275;48.492;9.214;2024-02-14T07:54:52;9.20;30.50
578;DHT22;275;48.492;9.214;2024-02-14T07:57:20;9.40;30.50
578;DHT22;275;48.492;9.214;2024-02-14T07:59:46;10.00;28.40
578;DHT22;275;48.492;9.214;2024-02-14T08:02:14;10.40;27.50
578;DHT22;275;48.492;9.214;2024-02-14T08:04:40;10.60;26.70
578;DHT22;275;48.492;9.214;2024-02-14T08:07:09;10.90;26.30
578;DHT22;275;48.492;9.214;2024-02-14T08:09:35;11.10;25.40
578;DHT22;275;48.492;9.214;2024-02-14T08:12:04;11.10;25.40
578;DHT22;275;48.492;9.214;2024-02-14T08:14:31;11.20;25.30
578;DHT22;275;48.492;9.214;2024-02-14T08:16:59;11.60;24.80
578;DHT22;275;48.492;9.214;2024-02-14T08:19:25;11.80;24.30
578;DHT22;275;48.492;9.214;2024-02-14T08:21:52;12.10;24.00
578;DHT22;275;48.492;9.214;2024-02-14T08:24:25;12.30;23.50
578;DHT22;275;48.492;9.214;2024-02-14T08:26:51;12.30;23.70
578;DHT22;275;48.492;9.214;2024-02-14T08:29:18;12.60;23.40
578;DHT22;275;48.492;9.214;2024-02-14T08:31:46;13.20;22.70
578;DHT22;275;48.492;9.214;2024-02-14T08:34:13;13.40;22.40
578;DHT22;275;48.492;9.214;2024-02-14T08:36:40;13.40;22.20
578;DHT22;275;48.492;9.214;2024-02-14T08:39:07;13.50;22.20
578;DHT22;275;48.492;9.214;2024-02-14T08:41:36;13.70;22.30
578;DHT22;275;48.492;9.214;2024-02-14T08:44:04;14.00;21.80
578;DHT22;275;48.492;9.214;2024-02-14T08:46:31;14.20;21.70
578;DHT22;275;48.492;9.214;2024-02-14T08:49:00;14.20;21.60
578;DHT22;275;48.492;9.214;2024-02-14T08:51:27;14.60;21.20
578;DHT22;275;48.492;9.214;2024-02-14T08:53:54;14.30;21.50
578;DHT22;275;48.492;9.214;2024-02-14T08:56:25;14.30;21.70
578;DHT22;275;48.492;9.214;2024-02-14T08:58:53;14.50;21.40
578;DHT22;275;48.492;9.214;2024-02-14T09:01:20;14.70;21.10
578;DHT22;275;48.492;9.214;2024-02-14T09:03:47;15.00;20.90
578;DHT22;275;48.492;9.214;2024-02-14T09:06:14;15.20;20.70
578;DHT22;275;48.492;9.214;2024-02-14T09:08:43;15.00;20.80
578;DHT22;275;48.492;9.214;2024-02-14T09:11:10;15.10;20.90
578;DHT22;275;48.492;9.214;2024-02-14T09:13:37;15.30;21.30
578;DHT22;275;48.492;9.214;2024-02-14T09:16:08;15.20;22.10
578;DHT22;275;48.492;9.214;2024-02-14T09:18:35;15.40;22.20
578;DHT22;275;48.492;9.214;2024-02-14T09:21:02;15.30;22.40
578;DHT22;275;48.492;9.214;2024-02-14T09:23:30;15.10;22.80
578;DHT22;275;48.492;9.214;2024-02-14T09:25:58;15.00;22.80
578;DHT22;275;48.492;9.214;2024-02-14T09:28:25;15.00;22.80
578;DHT22;275;48.492;9.214;2024-02-14T09:30:51;15.00;22.90
578;DHT22;275;48.492;9.214;2024-02-14T09:33:19;15.30;22.40
578;DHT22;275;48.492;9.214;2024-02-14T09:35:46;15.60;21.80
578;DHT22;275;48.492;9.214;2024-02-14T09:38:14;15.60;21.60
578;DHT22;275;48.492;9.214;2024-02-14T09:40:41;15.80;21.50
578;DHT22;275;48.492;9.214;2024-02-14T09:43:14;15.70;21.80
578;DHT22;275;48.492;9.214;2024-02-14T09:45:44;15.60;21.40
578;DHT22;275;48.492;9.214;2024-02-14T09:48:13;15.80;21.10
578;DHT22;275;48.492;9.214;2024-02-14T09:50:42;16.10;20.30
578;DHT22;275;48.492;9.214;2024-02-14T09:53:10;16.40;20.10
578;DHT22;275;48.492;9.214;2024-02-14T09:55:37;16.60;20.00
578;DHT22;275;48.492;9.214;2024-02-14T09:58:06;17.40;19.10
578;DHT22;275;48.492;9.214;2024-02-14T10:00:34;18.00;18.40
578;DHT22;275;48.492;9.214;2024-02-14T10:03:02;18.00;18.70
578;DHT22;275;48.492;9.214;2024-02-14T10:05:29;18.10;18.40
578;DHT22;275;48.492;9.214;2024-02-14T10:07:58;17.70;19.00
578;DHT22;275;48.492;9.214;2024-02-14T10:10:25;18.20;18.60
578;DHT22;275;48.492;9.214;2024-02-14T10:12:53;18.70;17.70
578;DHT22;275;48.492;9.214;2024-02-14T10:15:21;18.90;17.50
578;DHT22;275;48.492;9.214;2024-02-14T10:17:47;18.50;18.10
578;DHT22;275;48.492;9.214;2024-02-14T10:20:17;18.20;18.60
578;DHT22;275;48.492;9.214;2024-02-14T10:22:44;18.40;18.70
578;DHT22;275;48.492;9.214;2024-02-14T10:25:13;18.40;18.30
578;DHT22;275;48.492;9.214;2024-02-14T10:27:40;18.40;18.70
578;DHT22;275;48.492;9.214;2024-02-14T10:30:08;18.40;18.80
578;DHT22;275;48.492;9.214;2024-02-14T10:32:35;17.70;19.50
578;DHT22;275;48.492;9.214;2024-02-14T10:35:04;18.00;19.60
578;DHT22;275;48.492;9.214;2024-02-14T10:37:34;18.60;19.10
578;DHT22;275;48.492;9.214;2024-02-14T10:40:02;17.70;20.30
578;DHT22;275;48.492;9.214;2024-02-14T10:42:31;17.40;20.40
578;DHT22;275;48.492;9.214;2024-02-14T10:44:58;16.20;22.70
578;DHT22;275;48.492;9.214;2024-02-14T10:47:29;15.90;23.70
578;DHT22;275;48.492;9.214;2024-02-14T10:49:58;15.70;23.70
578;DHT22;275;48.492;9.214;2024-02-14T10:52:28;15.20;25.20
578;DHT22;275;48.492;9.214;2024-02-14T10:54:57;15.70;24.40
578;DHT22;275;48.492;9.214;2024-02-14T10:57:25;16.00;23.90
578;DHT22;275;48.492;9.214;2024-02-14T10:59:53;16.30;23.70
578;DHT22;275;48.492;9.214;2024-02-14T11:02:21;16.50;23.60
578;DHT22;275;48.492;9.214;2024-02-14T11:04:48;15.60;25.20
578;DHT22;275;48.492;9.214;2024-02-14T11:07:20;15.40;26.00
578;DHT22;275;48.492;9.214;2024-02-14T11:09:48;15.10;26.10
578;DHT22;275;48.492;9.214;2024-02-14T11:12:16;14.70;27.30
578;DHT22;275;48.492;9.214;2024-02-14T11:14:42;14.70;27.60
578;DHT22;275;48.492;9.214;2024-02-14T11:17:12;15.10;27.20
578;DHT22;275;48.492;9.214;2024-02-14T11:19:39;15.30;27.00
578;DHT22;275;48.492;9.214;2024-02-14T11:22:12;15.70;26.10
578;DHT22;275;48.492;9.214;2024-02-14T11:24:39;15.80;26.20
578;DHT22;275;48.492;9.214;2024-02-14T11:27:10;16.30;25.30
578;DHT22;275;48.492;9.214;2024-02-14T11:29:39;16.50;25.20
578;DHT22;275;48.492;9.214;2024-02-14T11:32:06;16.10;25.40
578;DHT22;275;48.492;9.214;2024-02-14T11:34:36;15.80;25.90
578;DHT22;275;48.492;9.214;2024-02-14T11:37:03;15.70;26.20
578;DHT22;275;48.492;9.214;2024-02-14T11:39:33;15.70;26.00
578;DHT22;275;48.492;9.214;2024-02-14T11:42:00;15.60;26.60
578;DHT22;275;48.492;9.214;2024-02-14T11:44:27;15.90;26.10
578;DHT22;275;48.492;9.214;2024-02-14T11:46:54;15.90;25.40
578;DHT22;275;48.492;9.214;2024-02-14T11:49:21;15.30;26.70
578;DHT22;275;48.492;9.214;2024-02-14T11:51:49;15.00;27.40
578;DHT22;275;48.492;9.214;2024-02-14T11:54:16;15.20;27.60
578;DHT22;275;48.492;9.214;2024-02-14T11:56:46;15.40;27.10
578;DHT22;275;48.492;9.214;2024-02-14T11:59:13;16.00;26.60
578;DHT22;275;48.492;9.214;2024-02-14T12:01:41;16.00;26.30
578;DHT22;275;48.492;9.214;2024-02-14T12:04:08;16.30;26.20
578;DHT22;275;48.492;9.214;2024-02-14T12:06:38;16.30;26.00
578;DHT22;275;48.492;9.214;2024-02-14T12:09:08;15.90;26.70
578;DHT22;275;48.492;9.214;2024-02-14T12:11:36;15.30;27.60
578;DHT22;275;48.492;9.214;2024-02-14T12:14:05;15.50;27.50
578;DHT22;275;48.492;9.214;2024-02-14T12:16:32;15.60;27.60
578;DHT22;275;48.492;9.214;2024-02-14T12:19:04;15.60;27.60
578;DHT22;275;48.492;9.214;2024-02-14T12:21:34;15.20;28.40
578;DHT22;275;48.492;9.214;2024-02-14T12:24:01;16.10;27.50
578;DHT22;275;48.492;9.214;2024-02-14T12:26:31;16.20;26.90
578;DHT22;275;48.492;9.214;2024-02-14T12:29:00;16.30;27.10
578;DHT22;275;48.492;9.214;2024-02-14T12:31:27;16.40;26.90
578;DHT22;275;48.492;9.214;2024-02-14T12:33:56;16.20;27.00
578;DHT22;275;48.492;9.214;2024-02-14T12:36:25;15.80;27.40
578;DHT22;275;48.492;9.214;2024-02-14T12:38:53;15.70;28.10
578;DHT22;275;48.492;9.214;2024-02-14T12:41:20;15.80;27.60
578;DHT22;275;48.492;9.214;2024-02-14T12:46:17;16.00;27.20
578;DHT22;275;48.492;9.214;2024-02-14T12:48:44;17.20;25.90
578;DHT22;275;48.492;9.214;2024-02-14T12:51:11;19.30;22.30
578;DHT22;275;48.492;9.214;2024-02-14T12:53:39;20.00;21.50
578;DHT22;275;48.492;9.214;2024-02-14T12:56:06;21.90;19.40
578;DHT22;275;48.492;9.214;2024-02-14T12:58:33;22.30;18.60
578;DHT22;275;48.492;9.214;2024-02-14T13:01:00;23.00;17.80
578;DHT22;275;48.492;9.214;2024-02-14T13:03:32;23.70;16.60
578;DHT22;275;48.492;9.214;2024-02-14T13:06:00;22.70;17.50
578;DHT22;275;48.492;9.214;2024-02-14T13:08:27;22.10;18.20
578;DHT22;275;48.492;9.214;2024-02-14T13:10:54;23.70;17.10
578;DHT22;275;48.492;9.214;2024-02-14T13:13:22;25.10;15.20
578;DHT22;275;48.492;9.214;2024-02-14T13:15:49;25.70;14.00
578;DHT22;275;48.492;9.214;2024-02-14T13:18:16;24.20;15.50
578;DHT22;275;48.492;9.214;2024-02-14T13:20:44;23.90;15.90
578;DHT22;275;48.492;9.214;2024-02-14T13:23:11;23.00;16.80
578;DHT22;275;48.492;9.214;2024-02-14T13:25:39;23.50;16.20
578;DHT22;275;48.492;9.214;2024-02-14T13:28:06;25.10;14.90
578;DHT22;275;48.492;9.214;2024-02-14T13:30:33;26.50;13.40
578;DHT22;275;48.492;9.214;2024-02-14T13:33:00;26.50;12.70
578;DHT22;275;48.492;9.214;2024-02-14T13:35:28;25.10;14.00
578;DHT22;275;48.492;9.214;2024-02-14T13:37:58;23.50;15.80
578;DHT22;275;48.492;9.214;2024-02-14T13:40:25;22.30;17.00
578;DHT22;275;48.492;9.214;2024-02-14T13:42:51;21.70;18.10
578;DHT22;275;48.492;9.214;2024-02-14T13:45:18;21.20;18.80
578;DHT22;275;48.492;9.214;2024-02-14T13:47:45;20.00;20.40
578;DHT22;275;48.492;9.214;2024-02-14T13:50:12;19.60;21.40
578;DHT22;275;48.492;9.214;2024-02-14T13:52:39;19.30;21.40
578;DHT22;275;48.492;9.214;2024-02-14T13:55:08;19.70;21.20
578;DHT22;275;48.492;9.214;2024-02-14T13:57:37;18.40;22.60
578;DHT22;275;48.492;9.214;2024-02-14T14:00:06;17.30;24.60
578;DHT22;275;48.492;9.214;2024-02-14T14:02:34;16.70;25.70
578;DHT22;275;48.492;9.214;2024-02-14T14:05:06;16.70;25.90
578;DHT22;275;48.492;9.214;2024-02-14T14:07:34;17.00;25.30
578;DHT22;275;48.492;9.214;2024-02-14T14:10:02;16.70;25.90
578;DHT22;275;48.492;9.214;2024-02-14T14:12:30;16.80;25.80
578;DHT22;275;48.492;9.214;2024-02-14T14:14:57;17.10;25.30
578;DHT22;275;48.492;9.214;2024-02-14T14:17:24;17.20;25.20
578;DHT22;275;48.492;9.214;2024-02-14T14:19:52;17.00;25.40
578;DHT22;275;48.492;9.214;2024-02-14T14:22:19;16.90;25.60
578;DHT22;275;48.492;9.214;2024-02-14T14:24:46;17.20;25.20
578;DHT22;275;48.492;9.214;2024-02-14T14:27:13;17.40;24.80
578;DHT22;275;48.492;9.214;2024-02-14T14:29:42;17.70;24.60
578;DHT22;275;48.492;9.214;2024-02-14T14:32:09;17.90;24.30
578;DHT22;275;48.492;9.214;2024-02-14T14:34:36;17.80;24.20
578;DHT22;275;48.492;9.214;2024-02-14T14:37:03;17.30;25.10
578;DHT22;275;48.492;9.214;2024-02-14T14:39:30;17.80;24.40
578;DHT22;275;48.492;9.214;2024-02-14T14:41:57;17.90;24.10
578;DHT22;275;48.492;9.214;2024-02-14T14:44:23;18.00;24.00
578;DHT22;275;48.492;9.214;2024-02-14T14:46:52;18.10;23.90
578;DHT22;275;48.492;9.214;2024-02-14T14:49:19;17.50;24.80
578;DHT22;275;48.492;9.214;2024-02-14T14:51:46;17.40;25.60
578;DHT22;275;48.492;9.214;2024-02-14T14:54:12;17.60;24.90
578;DHT22;275;48.492;9.214;2024-02-14T14:56:39;17.50;24.70
578;DHT22;275;48.492;9.214;2024-02-14T14:59:06;17.10;25.60
578;DHT22;275;48.492;9.214;2024-02-14T15:01:33;16.80;26.20
578;DHT22;275;48.492;9.214;2024-02-14T15:04:02;17.40;25.30
578;DHT22;275;48.492;9.214;2024-02-14T15:06:29;18.10;24.00
578;DHT22;275;48.492;9.214;2024-02-14T15:08:56;18.10;24.10
578;DHT22;275;48.492;9.214;2024-02-14T15:11:23;18.40;23.80
578;DHT22;275;48.492;9.214;2024-02-14T15:13:49;18.30;23.50
578;DHT22;275;48.492;9.214;2024-02-14T15:16:16;18.30;23.80
578;DHT22;275;48.492;9.214;2024-02-14T15:18:43;17.70;24.80
578;DHT22;275;48.492;9.214;2024-02-14T15:21:11;17.20;25.70
578;DHT22;275;48.492;9.214;2024-02-14T15:23:38;17.40;25.30
578;DHT22;275;48.492;9.214;2024-02-14T15:26:06;18.20;24.40
578;DHT22;275;48.492;9.214;2024-02-14T15:28:37;17.90;24.50
578;DHT22;275;48.492;9.214;2024-02-14T15:31:07;18.20;24.00
578;DHT22;275;48.492;9.214;2024-02-14T15:33:51;17.80;24.50
578;DHT22;275;48.492;9.214;2024-02-14T15:36:20;17.70;25.00
578;DHT22;275;48.492;9.214;2024-02-14T15:38:46;18.20;24.20
578;DHT22;275;48.492;9.214;2024-02-14T15:41:13;18.40;23.60
578;DHT22;275;48.492;9.214;2024-02-14T15:43:40;17.50;24.90
578;DHT22;275;48.492;9.214;2024-02-14T15:46:09;17.20;25.30
578;DHT22;275;48.492;9.214;2024-02-14T15:48:36;16.70;26.30
578;DHT22;275;48.492;9.214;2024-02-14T15:51:03;17.00;25.80
578;DHT22;275;48.492;9.214;2024-02-14T15:53:31;17.00;25.80
578;DHT22;275;48.492;9.214;2024-02-14T15:55:58;16.90;26.00
578;DHT22;275;48.492;9.214;2024-02-14T15:58:25;16.70;26.50
578;DHT22;275;48.492;9.214;2024-02-14T16:00:52;17.00;25.90
578;DHT22;275;48.492;9.214;2024-02-14T16:03:21;17.00;26.00
578;DHT22;275;48.492;9.214;2024-02-14T16:05:47;16.90;26.40
578;DHT22;275;48.492;9.214;2024-02-14T16:08:15;17.20;25.90
578;DHT22;275;48.492;9.214;2024-02-14T16:10:43;17.60;25.40
578;DHT22;275;48.492;9.214;2024-02-14T16:13:10;17.80;25.50
578;DHT22;275;48.492;9.214;2024-02-14T16:15:37;17.80;24.80
578;DHT22;275;48.492;9.214;2024-02-14T16:18:05;17.50;25.40
578;DHT22;275;48.492;9.214;2024-02-14T16:20:32;17.50;25.20
578;DHT22;275;48.492;9.214;2024-02-14T16:22:59;17.10;25.90
578;DHT22;275;48.492;9.214;2024-02-14T16:25:26;17.30;25.60
578;DHT22;275;48.492;9.214;2024-02-14T16:27:56;17.60;25.20
578;DHT22;275;48.492;9.214;2024-02-14T16:30:23;17.80;25.00
578;DHT22;275;48.492;9.214;2024-02-14T16:32:50;17.90;24.90
578;DHT22;275;48.492;9.214;2024-02-14T16:35:17;18.10;24.70
578;DHT22;275;48.492;9.214;2024-02-14T16:37:46;18.20;24.50
578;DHT22;275;48.492;9.214;2024-02-14T16:40:13;18.10;24.60
578;DHT22;275;48.492;9.214;2024-02-14T16:42:39;18.20;24.60
578;DHT22;275;48.492;9.214;2024-02-14T16:45:08;18.20;24.60
578;DHT22;275;48.492;9.214;2024-02-14T16:47:35;18.10;24.60